Allandale, Florida
Current Conditions -  °F | °C
As of 11:53 PM on Sunday 19 Oct 2014 (Local Time) from KDAB Reporting Station
Scattered Clouds Scattered Clouds  
Wind Chill: 75°   Ceiling: Unl
Heat Index: 75°   Visibility: 10mi
Dew Point: 64°   Wind: 9mph
Humidity: 69%   Direction: 70°ENE
Pressure: 30.06"   Gusts: NA
Location:  29.1486°N, 81.0301°W
Report Text: KDAB 200353Z 07008KT 10SM SCT040 SCT060 24/18 A3006 RMK AO2 SLP178 T02390178
Loading
Personal Weather Stations






























Interactive Weather Map
Tropical Storm Tracking
New forecast layout! Learn more

10-Day Weather Forecast

Advertisements
Track Severe Weather on mobile